createdAt,value
2023-09-28T00:00:28.175Z,17.00
2023-09-28T00:02:55.112Z,17.03
2023-09-28T00:05:21.993Z,17.08
2023-09-28T00:07:50.962Z,17.08
2023-09-28T00:10:18.109Z,17.11
2023-09-28T00:12:49.390Z,16.93
2023-09-28T00:15:16.836Z,16.98
2023-09-28T00:17:43.578Z,17.01
2023-09-28T00:20:18.443Z,17.04
2023-09-28T00:22:46.013Z,17.05
2023-09-28T00:25:13.183Z,16.88
2023-09-28T00:27:40.876Z,16.90
2023-09-28T00:30:13.944Z,16.83
2023-09-28T00:32:40.792Z,16.90
2023-09-28T00:35:08.204Z,16.86
2023-09-28T00:37:34.877Z,16.81
2023-09-28T00:40:02.270Z,16.68
2023-09-28T00:42:31.520Z,16.75
2023-09-28T00:44:57.963Z,16.85
2023-09-28T00:47:25.165Z,16.81
2023-09-28T00:49:53.194Z,16.79
2023-09-28T00:52:19.937Z,16.86
2023-09-28T00:54:48.321Z,16.76
2023-09-28T00:57:16.308Z,16.79
2023-09-28T00:59:42.921Z,16.74
2023-09-28T01:02:09.367Z,16.73
2023-09-28T01:04:39.212Z,16.71
2023-09-28T01:07:05.732Z,16.76
2023-09-28T01:09:32.239Z,16.62
2023-09-28T01:11:58.776Z,16.60
2023-09-28T01:14:25.732Z,16.69
2023-09-28T01:16:52.227Z,16.71
2023-09-28T01:19:19.140Z,16.64
2023-09-28T01:21:46.029Z,16.62
2023-09-28T01:24:12.418Z,16.63
2023-09-28T01:26:40.807Z,16.65
2023-09-28T01:29:07.409Z,16.65
2023-09-28T01:31:33.829Z,16.64
2023-09-28T01:34:00.491Z,16.61
2023-09-28T01:36:26.987Z,16.63
2023-09-28T01:39:01.884Z,16.62
2023-09-28T01:41:28.293Z,16.74
2023-09-28T01:43:54.952Z,16.77
2023-09-28T01:46:21.885Z,16.75
2023-09-28T01:48:48.382Z,16.79
2023-09-28T01:51:14.841Z,16.66
2023-09-28T01:53:41.315Z,16.75
2023-09-28T01:56:07.829Z,16.77
2023-09-28T01:58:34.240Z,16.77
2023-09-28T02:01:00.683Z,16.77
2023-09-28T02:03:27.122Z,16.82
2023-09-28T02:05:53.793Z,16.84
2023-09-28T02:08:20.528Z,16.77
2023-09-28T02:10:47.388Z,16.71
2023-09-28T02:13:14.058Z,16.64
2023-09-28T02:15:43.814Z,16.65
2023-09-28T02:18:10.483Z,16.63
2023-09-28T02:20:37.017Z,16.66
2023-09-28T02:23:03.635Z,16.64
2023-09-28T02:25:30.687Z,16.70
2023-09-28T02:27:57.134Z,16.74
2023-09-28T02:30:25.087Z,16.80
2023-09-28T02:32:52.749Z,16.71
2023-09-28T02:35:19.907Z,16.68
2023-09-28T02:37:49.712Z,16.68
2023-09-28T02:40:18.578Z,16.61
2023-09-28T02:42:45.215Z,16.58
2023-09-28T02:45:12.976Z,16.63
2023-09-28T02:47:44.919Z,16.55
2023-09-28T02:50:12.913Z,16.60
2023-09-28T02:52:44.014Z,16.63
2023-09-28T02:55:14.501Z,16.63
2023-09-28T02:57:41.708Z,16.67
2023-09-28T03:00:19.890Z,16.67
2023-09-28T03:02:47.003Z,16.58
2023-09-28T03:05:13.714Z,16.60
2023-09-28T03:07:40.604Z,16.61
2023-09-28T03:10:07.917Z,16.71
2023-09-28T03:12:34.537Z,16.74
2023-09-28T03:15:01.178Z,16.78
2023-09-28T03:17:27.692Z,16.52
2023-09-28T03:19:54.142Z,16.64
2023-09-28T03:22:21.301Z,16.67
2023-09-28T03:24:48.216Z,16.57
2023-09-28T03:27:14.602Z,16.57
2023-09-28T03:29:42.981Z,16.58
2023-09-28T03:32:09.873Z,16.53
2023-09-28T03:34:37.926Z,16.60
2023-09-28T03:37:05.078Z,16.68
2023-09-28T03:39:31.549Z,16.68
2023-09-28T03:41:57.989Z,16.51
2023-09-28T03:44:24.508Z,16.55
2023-09-28T03:46:51.004Z,16.61
2023-09-28T03:49:17.407Z,16.68
2023-09-28T03:51:44.019Z,16.71
2023-09-28T03:54:10.463Z,16.74
2023-09-28T03:56:36.865Z,16.76
2023-09-28T03:59:03.329Z,16.69
2023-09-28T04:01:30.809Z,16.15
2023-09-28T04:03:57.580Z,15.33
2023-09-28T04:06:24.137Z,15.41
2023-09-28T04:08:50.548Z,15.73
2023-09-28T04:11:17.295Z,15.80
2023-09-28T04:13:43.802Z,15.93
2023-09-28T04:16:10.252Z,16.04
2023-09-28T04:18:36.700Z,16.13
2023-09-28T04:21:03.198Z,16.21
2023-09-28T04:23:29.655Z,16.29
2023-09-28T04:25:56.154Z,16.10
2023-09-28T04:28:22.651Z,16.31
2023-09-28T04:30:49.198Z,16.42
2023-09-28T04:33:15.849Z,16.35
2023-09-28T04:35:42.895Z,16.21
2023-09-28T04:38:09.340Z,16.30
2023-09-28T04:40:38.132Z,16.34
2023-09-28T04:43:04.790Z,16.34
2023-09-28T04:45:31.170Z,16.34
2023-09-28T04:47:57.624Z,16.36
2023-09-28T04:50:24.146Z,16.38
2023-09-28T04:52:50.845Z,16.39
2023-09-28T04:55:17.620Z,16.51
2023-09-28T04:57:44.139Z,16.52
2023-09-28T05:00:12.065Z,16.57
2023-09-28T05:02:41.169Z,16.47
2023-09-28T05:05:08.878Z,16.60
2023-09-28T05:07:35.879Z,16.54
2023-09-28T05:10:02.309Z,16.56
2023-09-28T05:12:28.794Z,16.50
2023-09-28T05:14:55.204Z,16.41
2023-09-28T05:17:21.799Z,16.22
2023-09-28T05:19:48.425Z,16.28
2023-09-28T05:22:16.418Z,16.32
2023-09-28T05:24:42.790Z,16.37
2023-09-28T05:27:09.485Z,16.06
2023-09-28T05:29:35.848Z,16.14
2023-09-28T05:32:02.298Z,16.30
2023-09-28T05:34:28.726Z,16.36
2023-09-28T05:36:55.092Z,16.31
2023-09-28T05:39:23.004Z,16.32
2023-09-28T05:41:49.432Z,16.37
2023-09-28T05:44:15.912Z,16.39
2023-09-28T05:46:42.477Z,16.44
2023-09-28T05:49:08.963Z,16.32
2023-09-28T05:51:35.338Z,16.37
2023-09-28T05:54:01.697Z,16.24
2023-09-28T05:56:28.099Z,16.23
2023-09-28T05:58:55.073Z,16.12
2023-09-28T06:01:23.458Z,16.18
2023-09-28T06:03:49.963Z,16.27
2023-09-28T06:06:20.282Z,16.37
2023-09-28T06:08:47.890Z,16.49
2023-09-28T06:11:16.034Z,16.36
2023-09-28T06:13:56.337Z,16.47
2023-09-28T06:16:29.157Z,16.55
2023-09-28T06:18:55.897Z,16.71
2023-09-28T06:21:23.018Z,16.71
2023-09-28T06:23:49.501Z,16.67
2023-09-28T06:26:26.084Z,16.65
2023-09-28T06:29:01.708Z,16.69
2023-09-28T06:31:28.165Z,16.66
2023-09-28T06:33:54.563Z,16.72
2023-09-28T06:36:39.899Z,16.71
2023-09-28T06:39:07.901Z,16.75
2023-09-28T06:41:34.461Z,16.83
2023-09-28T06:44:01.095Z,16.84
2023-09-28T06:46:27.544Z,16.84
2023-09-28T06:48:54.387Z,16.89
2023-09-28T06:51:23.058Z,16.92
2023-09-28T06:53:49.497Z,17.04
2023-09-28T06:56:17.266Z,17.04
2023-09-28T06:58:44.468Z,17.05
2023-09-28T07:01:11.006Z,17.07
2023-09-28T07:03:37.707Z,17.07
2023-09-28T07:06:05.255Z,17.12
2023-09-28T07:08:31.829Z,17.19
2023-09-28T07:10:59.372Z,17.20
2023-09-28T07:13:25.852Z,17.25
2023-09-28T07:15:52.426Z,17.29
2023-09-28T07:18:19.398Z,17.34
2023-09-28T07:20:45.900Z,17.42
2023-09-28T07:23:12.514Z,17.37
2023-09-28T07:25:38.950Z,17.47
2023-09-28T07:28:05.587Z,17.49
2023-09-28T07:30:32.201Z,17.51
2023-09-28T07:32:58.702Z,17.61
2023-09-28T07:35:25.308Z,17.72
2023-09-28T07:37:51.857Z,17.70
2023-09-28T07:40:28.637Z,17.80
2023-09-28T07:43:02.962Z,17.81
2023-09-28T07:45:29.368Z,17.83
2023-09-28T07:47:55.806Z,17.92
2023-09-28T07:50:22.774Z,17.91
2023-09-28T07:52:49.234Z,18.07
2023-09-28T07:55:15.724Z,18.12
2023-09-28T08:00:12.992Z,18.25
2023-09-28T08:02:40.322Z,18.17
2023-09-28T08:05:07.502Z,18.30
2023-09-28T08:07:35.022Z,18.44
2023-09-28T08:10:05.227Z,18.47
2023-09-28T08:12:32.209Z,18.59
2023-09-28T08:14:58.655Z,18.58
2023-09-28T08:17:25.245Z,18.61
2023-09-28T08:19:52.540Z,18.66
2023-09-28T08:22:19.205Z,18.73
2023-09-28T08:24:45.737Z,18.77
2023-09-28T08:27:12.449Z,18.69
2023-09-28T08:29:39.206Z,18.64
2023-09-28T08:32:05.710Z,18.65
2023-09-28T08:37:04.640Z,18.79
2023-09-28T08:39:32.567Z,18.71
2023-09-28T08:42:03.545Z,18.68
2023-09-28T08:44:36.871Z,18.56
2023-09-28T08:47:12.751Z,18.68
2023-09-28T08:49:40.673Z,18.82
2023-09-28T08:52:07.102Z,19.03
2023-09-28T08:54:33.832Z,19.18
2023-09-28T08:57:00.877Z,19.17
2023-09-28T08:59:31.357Z,19.34
2023-09-28T09:01:58.973Z,19.46
2023-09-28T09:04:25.738Z,19.63
2023-09-28T09:06:52.949Z,19.79
2023-09-28T09:09:19.646Z,19.90
2023-09-28T09:11:52.043Z,20.06
2023-09-28T09:14:18.987Z,20.11
2023-09-28T09:16:45.427Z,20.11
2023-09-28T09:19:15.667Z,20.22
2023-09-28T09:21:45.205Z,20.25
2023-09-28T09:24:15.780Z,20.40
2023-09-28T09:26:47.647Z,20.55
2023-09-28T09:29:17.152Z,20.62
2023-09-28T09:31:45.301Z,20.76
2023-09-28T09:34:13.083Z,20.85
2023-09-28T09:36:40.216Z,20.70
2023-09-28T09:39:07.655Z,20.66
2023-09-28T09:41:47.630Z,20.66
2023-09-28T09:44:19.099Z,20.52
2023-09-28T09:46:50.520Z,20.62
2023-09-28T09:49:18.113Z,20.78
2023-09-28T09:51:46.522Z,21.01
2023-09-28T09:54:14.915Z,21.26
2023-09-28T09:56:53.292Z,21.23
2023-09-28T09:59:23.773Z,21.17
2023-09-28T10:01:54.892Z,21.45
2023-09-28T10:04:24.939Z,21.53
2023-09-28T10:06:53.611Z,21.73
2023-09-28T10:09:21.540Z,21.78
2023-09-28T10:11:50.724Z,21.85
2023-09-28T10:14:22.425Z,21.83
2023-09-28T10:16:52.319Z,21.70
2023-09-28T10:19:21.750Z,21.88
2023-09-28T10:21:48.716Z,22.12
2023-09-28T10:24:16.464Z,22.35
2023-09-28T10:26:51.436Z,22.45
2023-09-28T10:29:24.837Z,22.31
2023-09-28T10:31:58.416Z,22.55
2023-09-28T10:34:28.284Z,22.61
2023-09-28T10:37:09.115Z,22.45
2023-09-28T10:39:36.086Z,22.46
2023-09-28T10:42:07.245Z,22.67
2023-09-28T10:44:33.965Z,22.69
2023-09-28T10:47:00.573Z,22.85
2023-09-28T10:49:29.114Z,22.84
2023-09-28T10:51:58.778Z,22.97
2023-09-28T10:54:25.356Z,23.21
2023-09-28T10:56:53.114Z,23.43
2023-09-28T10:59:20.217Z,23.49
2023-09-28T11:01:48.883Z,23.50
2023-09-28T11:04:16.978Z,23.71
2023-09-28T11:06:45.056Z,23.79
2023-09-28T11:09:13.112Z,23.79
2023-09-28T11:11:41.120Z,24.02
2023-09-28T11:14:07.856Z,23.89
2023-09-28T11:16:35.779Z,24.14
2023-09-28T11:19:02.424Z,24.32
2023-09-28T11:21:33.217Z,24.28
2023-09-28T11:24:01.069Z,24.22
2023-09-28T11:26:29.781Z,24.41
2023-09-28T11:28:58.765Z,24.44
2023-09-28T11:31:26.148Z,24.54
2023-09-28T11:33:53.261Z,24.64
2023-09-28T11:36:22.230Z,24.87
2023-09-28T11:38:50.656Z,25.07
2023-09-28T11:41:17.301Z,25.20
2023-09-28T11:44:00.038Z,25.16
2023-09-28T11:46:32.455Z,25.30
2023-09-28T11:49:17.465Z,25.40
2023-09-28T11:51:44.937Z,25.60
2023-09-28T11:54:16.509Z,25.71
2023-09-28T11:56:45.066Z,25.92
2023-09-28T11:59:16.313Z,25.91
2023-09-28T12:01:47.093Z,25.72
2023-09-28T12:04:13.838Z,25.81
2023-09-28T12:06:40.947Z,26.05
2023-09-28T12:09:07.801Z,25.83
2023-09-28T12:11:35.243Z,25.71
2023-09-28T12:14:01.923Z,26.10
2023-09-28T12:16:28.470Z,26.38
2023-09-28T12:18:55.003Z,26.74
2023-09-28T12:21:21.436Z,27.03
2023-09-28T12:23:48.307Z,27.22
2023-09-28T12:26:14.702Z,27.45
2023-09-28T12:28:44.259Z,27.64
2023-09-28T12:31:11.431Z,27.78
2023-09-28T12:33:38.010Z,27.83
2023-09-28T12:36:06.110Z,27.55
2023-09-28T12:38:32.836Z,27.52
2023-09-28T12:40:59.319Z,27.80
2023-09-28T12:43:27.174Z,27.99
2023-09-28T12:45:54.354Z,28.07
2023-09-28T12:48:21.380Z,28.08
2023-09-28T12:50:51.446Z,28.22
2023-09-28T12:53:18.910Z,28.10
2023-09-28T12:55:45.713Z,28.13
2023-09-28T12:58:12.236Z,28.44
2023-09-28T13:00:39.543Z,28.62
2023-09-28T13:03:10.386Z,28.74
2023-09-28T13:05:38.899Z,28.89
2023-09-28T13:08:08.592Z,28.87
2023-09-28T13:10:35.964Z,28.84
2023-09-28T13:13:06.819Z,28.92
2023-09-28T13:15:34.429Z,29.03
2023-09-28T13:18:09.369Z,29.17
2023-09-28T13:20:39.878Z,29.01
2023-09-28T13:23:06.493Z,28.93
2023-09-28T13:25:36.412Z,28.97
2023-09-28T13:28:03.612Z,28.96
2023-09-28T13:30:30.653Z,29.06
2023-09-28T13:33:00.576Z,29.04
2023-09-28T13:35:27.336Z,28.91
2023-09-28T13:37:53.763Z,28.77
2023-09-28T13:40:34.001Z,28.82
2023-09-28T13:43:01.248Z,28.92
2023-09-28T13:45:27.940Z,29.09
2023-09-28T13:47:59.673Z,29.04
2023-09-28T13:50:30.327Z,28.91
2023-09-28T13:52:57.228Z,28.99
2023-09-28T13:55:24.348Z,29.14
2023-09-28T13:57:51.609Z,29.18
2023-09-28T14:00:34.691Z,29.16
2023-09-28T14:03:01.655Z,29.09
2023-09-28T14:05:28.512Z,29.32
2023-09-28T14:07:57.176Z,29.45
2023-09-28T14:10:23.825Z,29.57
2023-09-28T14:12:50.391Z,29.66
2023-09-28T14:15:17.244Z,29.71
2023-09-28T14:17:45.304Z,29.82
2023-09-28T14:20:12.535Z,29.86
2023-09-28T14:22:45.668Z,29.76
2023-09-28T14:25:12.738Z,29.68
2023-09-28T14:27:39.693Z,29.71
2023-09-28T14:30:08.301Z,29.82
2023-09-28T14:32:36.021Z,29.69
2023-09-28T14:35:03.792Z,29.80
2023-09-28T14:37:30.485Z,29.80
2023-09-28T14:39:57.343Z,29.86
2023-09-28T14:42:23.944Z,29.90
2023-09-28T14:44:50.764Z,29.91
2023-09-28T14:47:17.275Z,29.91
2023-09-28T14:49:47.532Z,29.94
2023-09-28T14:52:14.968Z,30.00
2023-09-28T14:54:41.359Z,29.99
2023-09-28T14:57:08.040Z,30.05
2023-09-28T14:59:34.990Z,30.01
2023-09-28T15:02:01.403Z,30.11
2023-09-28T15:04:27.778Z,30.19
2023-09-28T15:06:54.344Z,30.15
2023-09-28T15:09:20.757Z,30.21
2023-09-28T15:11:47.122Z,30.32
2023-09-28T15:14:13.586Z,30.31
2023-09-28T15:16:40.109Z,30.33
2023-09-28T15:19:07.557Z,30.30
2023-09-28T15:21:34.791Z,30.28
2023-09-28T15:24:02.793Z,30.39
2023-09-28T15:26:29.536Z,30.55
2023-09-28T15:28:56.401Z,30.43
2023-09-28T15:31:23.191Z,30.44
2023-09-28T15:33:49.640Z,30.35
2023-09-28T15:36:17.891Z,30.31
2023-09-28T15:38:44.442Z,30.27
2023-09-28T15:41:37.242Z,30.25
2023-09-28T15:44:05.404Z,30.24
2023-09-28T15:46:33.472Z,30.21
2023-09-28T15:49:09.715Z,29.87
2023-09-28T15:51:36.314Z,30.28
2023-09-28T15:54:02.778Z,30.43
2023-09-28T15:56:29.349Z,30.30
2023-09-28T15:58:56.631Z,30.12
2023-09-28T16:01:23.999Z,29.99
2023-09-28T16:03:54.389Z,29.99
2023-09-28T16:06:24.040Z,30.09
2023-09-28T16:08:51.407Z,30.23
2023-09-28T16:11:19.130Z,30.30
2023-09-28T16:13:45.620Z,30.38
2023-09-28T16:16:12.070Z,30.50
2023-09-28T16:18:38.596Z,30.40
2023-09-28T16:21:05.000Z,30.40
2023-09-28T16:23:31.522Z,30.34
2023-09-28T16:25:58.230Z,30.52
2023-09-28T16:28:24.704Z,30.45
2023-09-28T16:30:51.112Z,30.03
2023-09-28T16:33:17.703Z,29.93
2023-09-28T16:35:44.222Z,29.86
2023-09-28T16:38:12.892Z,29.71
2023-09-28T16:40:39.682Z,29.56
2023-09-28T16:43:06.110Z,29.43
2023-09-28T16:45:32.629Z,29.26
2023-09-28T16:48:02.270Z,29.23
2023-09-28T16:50:29.838Z,29.21
2023-09-28T16:52:59.983Z,28.93
2023-09-28T16:55:26.417Z,28.80
2023-09-28T16:57:53.355Z,28.59
2023-09-28T17:00:20.214Z,28.54
2023-09-28T17:02:47.147Z,28.41
2023-09-28T17:05:13.850Z,28.34
2023-09-28T17:07:40.408Z,28.21
2023-09-28T17:10:07.318Z,28.08
2023-09-28T17:12:43.339Z,27.87
2023-09-28T17:15:12.284Z,27.81
2023-09-28T17:17:38.753Z,27.70
2023-09-28T17:20:07.153Z,27.60
2023-09-28T17:22:33.659Z,27.46
2023-09-28T17:25:00.102Z,27.38
2023-09-28T17:27:26.558Z,27.32
2023-09-28T17:29:53.031Z,27.18
2023-09-28T17:32:19.774Z,27.06
2023-09-28T17:34:46.203Z,26.93
2023-09-28T17:37:13.608Z,26.84
2023-09-28T17:39:40.062Z,26.69
2023-09-28T17:42:06.436Z,26.70
2023-09-28T17:44:32.929Z,26.59
2023-09-28T17:47:01.209Z,26.47
2023-09-28T17:49:27.741Z,26.42
2023-09-28T17:51:54.202Z,26.29
2023-09-28T17:54:20.641Z,26.24
2023-09-28T17:56:47.332Z,26.09
2023-09-28T17:59:15.031Z,26.00
2023-09-28T18:01:41.634Z,25.87
2023-09-28T18:04:08.203Z,25.78
2023-09-28T18:06:34.639Z,25.72
2023-09-28T18:09:01.258Z,25.70
2023-09-28T18:11:28.094Z,25.68
2023-09-28T18:13:56.746Z,25.57
2023-09-28T18:16:23.426Z,25.55
2023-09-28T18:18:49.908Z,25.46
2023-09-28T18:21:16.698Z,25.33
2023-09-28T18:23:43.114Z,25.28
2023-09-28T18:26:09.610Z,25.26
2023-09-28T18:28:37.689Z,25.22
2023-09-28T18:31:06.906Z,25.11
2023-09-28T18:33:33.385Z,24.99
2023-09-28T18:35:59.866Z,24.95
2023-09-28T18:38:26.363Z,24.84
2023-09-28T18:40:52.773Z,24.73
2023-09-28T18:43:19.259Z,24.53
2023-09-28T18:45:45.753Z,24.43
2023-09-28T18:48:14.537Z,24.18
2023-09-28T18:50:42.369Z,24.10
2023-09-28T18:53:08.941Z,23.86
2023-09-28T18:55:38.399Z,23.86
2023-09-28T18:58:04.825Z,23.89
2023-09-28T19:00:31.754Z,23.77
2023-09-28T19:02:59.525Z,23.66
2023-09-28T19:05:26.535Z,23.63
2023-09-28T19:07:53.105Z,23.57
2023-09-28T19:10:19.581Z,23.57
2023-09-28T19:12:46.066Z,23.56
2023-09-28T19:15:12.535Z,23.55
2023-09-28T19:17:39.185Z,23.41
2023-09-28T19:20:06.266Z,23.35
2023-09-28T19:22:36.069Z,23.28
2023-09-28T19:25:02.494Z,23.18
2023-09-28T19:27:38.758Z,23.02
2023-09-28T19:30:08.142Z,22.86
2023-09-28T19:32:34.737Z,22.86
2023-09-28T19:35:01.264Z,22.75
2023-09-28T19:37:27.634Z,22.74
2023-09-28T19:39:54.100Z,22.75
2023-09-28T19:42:20.500Z,22.68
2023-09-28T19:44:47.741Z,22.71
2023-09-28T19:47:14.934Z,22.58
2023-09-28T19:49:41.724Z,22.56
2023-09-28T19:52:09.051Z,22.48
2023-09-28T19:54:35.636Z,22.47
2023-09-28T19:57:02.091Z,22.44
2023-09-28T19:59:28.534Z,22.37
2023-09-28T20:01:55.518Z,22.37
2023-09-28T20:04:22.061Z,22.36
2023-09-28T20:06:49.053Z,22.33
2023-09-28T20:09:16.171Z,22.28
2023-09-28T20:11:42.741Z,22.32
2023-09-28T20:14:09.230Z,22.27
2023-09-28T20:16:36.558Z,22.25
2023-09-28T20:19:04.001Z,22.12
2023-09-28T20:21:30.723Z,22.09
2023-09-28T20:23:57.386Z,21.99
2023-09-28T20:26:24.039Z,21.80
2023-09-28T20:28:50.572Z,21.85
2023-09-28T20:31:17.289Z,21.83
2023-09-28T20:33:44.065Z,21.84
2023-09-28T20:36:10.688Z,21.82
2023-09-28T20:38:37.214Z,21.81
2023-09-28T20:41:04.298Z,21.74
2023-09-28T20:43:30.944Z,21.72
2023-09-28T20:45:57.372Z,21.60
2023-09-28T20:48:24.027Z,21.49
2023-09-28T20:50:51.391Z,21.41
2023-09-28T20:53:17.969Z,21.40
2023-09-28T20:55:44.554Z,21.40
2023-09-28T20:58:12.106Z,21.38
2023-09-28T21:00:39.201Z,21.37
2023-09-28T21:03:05.929Z,21.28
2023-09-28T21:05:32.638Z,21.29
2023-09-28T21:07:59.618Z,21.25
2023-09-28T21:10:27.254Z,21.21
2023-09-28T21:12:53.761Z,21.15
2023-09-28T21:15:21.583Z,21.05
2023-09-28T21:17:48.274Z,20.94
2023-09-28T21:20:15.397Z,20.97
2023-09-28T21:22:42.167Z,20.95
2023-09-28T21:25:09.474Z,20.96
2023-09-28T21:27:36.138Z,20.87
2023-09-28T21:30:02.619Z,20.76
2023-09-28T21:32:29.671Z,20.74
2023-09-28T21:34:56.228Z,20.67
2023-09-28T21:37:22.802Z,20.65
2023-09-28T21:39:49.319Z,20.68
2023-09-28T21:42:15.856Z,20.69
2023-09-28T21:44:42.991Z,20.52
2023-09-28T21:47:09.879Z,20.54
2023-09-28T21:49:36.432Z,20.47
2023-09-28T21:52:02.984Z,20.37
2023-09-28T21:54:29.473Z,20.28
2023-09-28T21:56:56.079Z,20.26
2023-09-28T21:59:22.602Z,20.37
2023-09-28T22:01:49.241Z,20.34
2023-09-28T22:04:15.732Z,20.34
2023-09-28T22:06:43.174Z,20.26
2023-09-28T22:09:11.212Z,20.19
2023-09-28T22:11:37.870Z,20.16
2023-09-28T22:14:04.593Z,20.10
2023-09-28T22:16:31.174Z,20.15
2023-09-28T22:18:57.751Z,20.10
2023-09-28T22:21:24.241Z,20.12
2023-09-28T22:23:51.020Z,20.05
2023-09-28T22:26:17.653Z,20.10
2023-09-28T22:28:44.204Z,20.00
2023-09-28T22:31:10.795Z,19.97
2023-09-28T22:33:37.257Z,19.99
2023-09-28T22:36:03.766Z,19.94
2023-09-28T22:38:30.222Z,19.85
2023-09-28T22:40:57.543Z,19.69
2023-09-28T22:43:24.137Z,19.71
2023-09-28T22:45:50.764Z,19.69
2023-09-28T22:48:17.454Z,19.69
2023-09-28T22:50:44.049Z,19.69
2023-09-28T22:53:10.532Z,19.61
2023-09-28T22:55:36.989Z,19.54
2023-09-28T22:58:03.514Z,19.52
2023-09-28T23:00:30.115Z,19.52
2023-09-28T23:02:56.657Z,19.49
2023-09-28T23:05:23.156Z,19.45
2023-09-28T23:07:49.667Z,19.39
2023-09-28T23:10:16.186Z,19.37
2023-09-28T23:12:43.836Z,19.45
2023-09-28T23:15:15.097Z,19.40
2023-09-28T23:17:42.896Z,19.34
2023-09-28T23:20:11.143Z,19.28
2023-09-28T23:22:45.684Z,19.24
2023-09-28T23:25:18.672Z,19.30
2023-09-28T23:27:49.647Z,19.21
2023-09-28T23:30:21.419Z,19.15
2023-09-28T23:32:52.569Z,19.04
2023-09-28T23:35:20.904Z,19.14
2023-09-28T23:37:49.068Z,19.12
2023-09-28T23:40:22.543Z,19.10
2023-09-28T23:42:53.850Z,19.04
2023-09-28T23:45:21.210Z,18.97
2023-09-28T23:47:48.657Z,18.86
2023-09-28T23:50:15.476Z,18.80
2023-09-28T23:52:44.738Z,18.82
2023-09-28T23:55:16.505Z,18.82
2023-09-28T23:57:44.795Z,18.78
